sensor_id;sensor_type;location;lat;lon;timestamp;P1;durP1;ratioP1;P2;durP2;ratioP2
25079;SDS011;13071;48.868;9.996;2022-11-20T00:00:16;10.32;;;5.20;;
25079;SDS011;13071;48.868;9.996;2022-11-20T00:02:43;11.93;;;6.00;;
25079;SDS011;13071;48.868;9.996;2022-11-20T00:05:10;10.73;;;5.75;;
25079;SDS011;13071;48.868;9.996;2022-11-20T00:07:38;9.82;;;5.28;;
25079;SDS011;13071;48.868;9.996;2022-11-20T00:10:05;13.52;;;5.55;;
25079;SDS011;13071;48.868;9.996;2022-11-20T00:12:32;10.90;;;5.38;;
25079;SDS011;13071;48.868;9.996;2022-11-20T00:14:58;15.68;;;5.68;;
25079;SDS011;13071;48.868;9.996;2022-11-20T00:17:25;10.95;;;5.72;;
25079;SDS011;13071;48.868;9.996;2022-11-20T00:19:52;10.10;;;5.75;;
25079;SDS011;13071;48.868;9.996;2022-11-20T00:22:18;16.45;;;6.32;;
25079;SDS011;13071;48.868;9.996;2022-11-20T00:24:46;10.07;;;5.55;;
25079;SDS011;13071;48.868;9.996;2022-11-20T00:27:13;11.82;;;5.38;;
25079;SDS011;13071;48.868;9.996;2022-11-20T00:29:39;10.68;;;5.40;;
25079;SDS011;13071;48.868;9.996;2022-11-20T00:32:06;11.88;;;5.28;;
25079;SDS011;13071;48.868;9.996;2022-11-20T00:34:33;10.77;;;5.20;;
25079;SDS011;13071;48.868;9.996;2022-11-20T00:36:59;12.40;;;5.13;;
25079;SDS011;13071;48.868;9.996;2022-11-20T00:39:26;9.93;;;5.55;;
25079;SDS011;13071;48.868;9.996;2022-11-20T00:41:54;10.77;;;5.22;;
25079;SDS011;13071;48.868;9.996;2022-11-20T00:44:20;10.07;;;4.75;;
25079;SDS011;13071;48.868;9.996;2022-11-20T00:46:47;10.85;;;4.53;;
25079;SDS011;13071;48.868;9.996;2022-11-20T00:49:13;8.25;;;4.40;;
25079;SDS011;13071;48.868;9.996;2022-11-20T00:51:40;10.27;;;4.78;;
25079;SDS011;13071;48.868;9.996;2022-11-20T00:54:07;11.02;;;4.97;;
25079;SDS011;13071;48.868;9.996;2022-11-20T00:56:33;11.00;;;4.50;;
25079;SDS011;13071;48.868;9.996;2022-11-20T00:59:01;9.00;;;4.28;;
25079;SDS011;13071;48.868;9.996;2022-11-20T01:01:28;9.07;;;4.57;;
25079;SDS011;13071;48.868;9.996;2022-11-20T01:03:56;9.23;;;4.80;;
25079;SDS011;13071;48.868;9.996;2022-11-20T01:06:24;15.80;;;4.97;;
25079;SDS011;13071;48.868;9.996;2022-11-20T01:08:52;8.85;;;4.97;;
25079;SDS011;13071;48.868;9.996;2022-11-20T01:11:21;9.95;;;4.88;;
25079;SDS011;13071;48.868;9.996;2022-11-20T01:13:50;10.35;;;4.15;;
25079;SDS011;13071;48.868;9.996;2022-11-20T01:16:20;8.38;;;4.43;;
25079;SDS011;13071;48.868;9.996;2022-11-20T01:18:48;8.93;;;4.40;;
25079;SDS011;13071;48.868;9.996;2022-11-20T01:21:16;7.25;;;4.45;;
25079;SDS011;13071;48.868;9.996;2022-11-20T01:23:44;12.85;;;4.43;;
25079;SDS011;13071;48.868;9.996;2022-11-20T01:26:13;7.43;;;4.03;;
25079;SDS011;13071;48.868;9.996;2022-11-20T01:28:41;8.48;;;3.97;;
25079;SDS011;13071;48.868;9.996;2022-11-20T01:31:12;10.73;;;4.75;;
25079;SDS011;13071;48.868;9.996;2022-11-20T01:33:41;9.52;;;4.07;;
25079;SDS011;13071;48.868;9.996;2022-11-20T01:36:09;7.38;;;4.10;;
25079;SDS011;13071;48.868;9.996;2022-11-20T01:38:37;9.27;;;4.00;;
25079;SDS011;13071;48.868;9.996;2022-11-20T01:41:04;6.93;;;4.20;;
25079;SDS011;13071;48.868;9.996;2022-11-20T01:43:32;7.75;;;4.03;;
25079;SDS011;13071;48.868;9.996;2022-11-20T01:46:00;8.77;;;4.55;;
25079;SDS011;13071;48.868;9.996;2022-11-20T01:48:30;8.20;;;3.88;;
25079;SDS011;13071;48.868;9.996;2022-11-20T01:51:02;7.10;;;3.67;;
25079;SDS011;13071;48.868;9.996;2022-11-20T01:53:33;8.68;;;3.42;;
25079;SDS011;13071;48.868;9.996;2022-11-20T01:56:05;8.82;;;4.38;;
25079;SDS011;13071;48.868;9.996;2022-11-20T01:58:36;6.57;;;3.95;;
25079;SDS011;13071;48.868;9.996;2022-11-20T02:01:06;9.27;;;4.00;;
25079;SDS011;13071;48.868;9.996;2022-11-20T02:03:33;5.65;;;3.35;;
25079;SDS011;13071;48.868;9.996;2022-11-20T02:06:04;10.90;;;4.05;;
25079;SDS011;13071;48.868;9.996;2022-11-20T02:08:37;5.35;;;3.50;;
25079;SDS011;13071;48.868;9.996;2022-11-20T02:11:04;8.80;;;3.95;;
25079;SDS011;13071;48.868;9.996;2022-11-20T02:13:31;6.20;;;3.72;;
25079;SDS011;13071;48.868;9.996;2022-11-20T02:16:15;7.32;;;3.38;;
25079;SDS011;13071;48.868;9.996;2022-11-20T02:18:46;6.70;;;3.33;;
25079;SDS011;13071;48.868;9.996;2022-11-20T02:21:16;8.85;;;3.78;;
25079;SDS011;13071;48.868;9.996;2022-11-20T02:23:54;8.77;;;3.47;;
25079;SDS011;13071;48.868;9.996;2022-11-20T02:26:30;5.85;;;3.45;;
25079;SDS011;13071;48.868;9.996;2022-11-20T02:28:59;5.60;;;3.53;;
25079;SDS011;13071;48.868;9.996;2022-11-20T02:31:28;9.77;;;4.30;;
25079;SDS011;13071;48.868;9.996;2022-11-20T02:33:55;6.68;;;3.67;;
25079;SDS011;13071;48.868;9.996;2022-11-20T02:36:23;9.68;;;3.95;;
25079;SDS011;13071;48.868;9.996;2022-11-20T02:38:52;7.43;;;3.80;;
25079;SDS011;13071;48.868;9.996;2022-11-20T02:41:21;4.78;;;3.05;;
25079;SDS011;13071;48.868;9.996;2022-11-20T02:43:48;6.95;;;3.28;;
25079;SDS011;13071;48.868;9.996;2022-11-20T02:46:14;5.47;;;3.50;;
25079;SDS011;13071;48.868;9.996;2022-11-20T02:48:41;6.47;;;3.60;;
25079;SDS011;13071;48.868;9.996;2022-11-20T02:51:08;6.88;;;2.95;;
25079;SDS011;13071;48.868;9.996;2022-11-20T02:53:34;4.90;;;3.15;;
25079;SDS011;13071;48.868;9.996;2022-11-20T02:56:02;4.57;;;2.88;;
25079;SDS011;13071;48.868;9.996;2022-11-20T02:58:29;6.93;;;3.38;;
25079;SDS011;13071;48.868;9.996;2022-11-20T03:00:56;5.13;;;3.15;;
25079;SDS011;13071;48.868;9.996;2022-11-20T03:03:22;6.22;;;3.17;;
25079;SDS011;13071;48.868;9.996;2022-11-20T03:05:49;6.18;;;3.30;;
25079;SDS011;13071;48.868;9.996;2022-11-20T03:08:16;7.57;;;3.28;;
25079;SDS011;13071;48.868;9.996;2022-11-20T03:10:42;4.65;;;2.67;;
25079;SDS011;13071;48.868;9.996;2022-11-20T03:13:10;4.70;;;2.88;;
25079;SDS011;13071;48.868;9.996;2022-11-20T03:15:37;4.13;;;2.55;;
25079;SDS011;13071;48.868;9.996;2022-11-20T03:18:04;8.80;;;3.30;;
25079;SDS011;13071;48.868;9.996;2022-11-20T03:20:31;4.88;;;2.72;;
25079;SDS011;13071;48.868;9.996;2022-11-20T03:22:58;5.75;;;3.03;;
25079;SDS011;13071;48.868;9.996;2022-11-20T03:25:25;5.22;;;2.80;;
25079;SDS011;13071;48.868;9.996;2022-11-20T03:27:52;4.75;;;2.90;;
25079;SDS011;13071;48.868;9.996;2022-11-20T03:30:21;5.28;;;3.00;;
25079;SDS011;13071;48.868;9.996;2022-11-20T03:32:48;5.47;;;3.33;;
25079;SDS011;13071;48.868;9.996;2022-11-20T03:35:14;5.75;;;3.17;;
25079;SDS011;13071;48.868;9.996;2022-11-20T03:37:41;4.32;;;2.75;;
25079;SDS011;13071;48.868;9.996;2022-11-20T03:40:08;5.75;;;3.10;;
25079;SDS011;13071;48.868;9.996;2022-11-20T03:42:35;5.88;;;3.15;;
25079;SDS011;13071;48.868;9.996;2022-11-20T03:45:11;5.70;;;3.05;;
25079;SDS011;13071;48.868;9.996;2022-11-20T03:47:39;7.20;;;3.28;;
25079;SDS011;13071;48.868;9.996;2022-11-20T03:50:07;5.25;;;3.17;;
25079;SDS011;13071;48.868;9.996;2022-11-20T03:52:34;5.57;;;3.45;;
25079;SDS011;13071;48.868;9.996;2022-11-20T03:55:00;4.50;;;2.78;;
25079;SDS011;13071;48.868;9.996;2022-11-20T03:57:27;6.45;;;2.97;;
25079;SDS011;13071;48.868;9.996;2022-11-20T03:59:54;4.63;;;2.90;;
25079;SDS011;13071;48.868;9.996;2022-11-20T04:02:21;8.35;;;3.08;;
25079;SDS011;13071;48.868;9.996;2022-11-20T04:04:49;5.70;;;3.08;;
25079;SDS011;13071;48.868;9.996;2022-11-20T04:07:15;6.65;;;3.40;;
25079;SDS011;13071;48.868;9.996;2022-11-20T04:09:42;9.80;;;3.70;;
25079;SDS011;13071;48.868;9.996;2022-11-20T04:12:09;8.43;;;3.30;;
25079;SDS011;13071;48.868;9.996;2022-11-20T04:14:36;7.00;;;3.00;;
25079;SDS011;13071;48.868;9.996;2022-11-20T04:17:03;4.68;;;2.90;;
25079;SDS011;13071;48.868;9.996;2022-11-20T04:19:29;5.43;;;3.10;;
25079;SDS011;13071;48.868;9.996;2022-11-20T04:21:57;6.50;;;3.28;;
25079;SDS011;13071;48.868;9.996;2022-11-20T04:24:24;5.25;;;3.20;;
25079;SDS011;13071;48.868;9.996;2022-11-20T04:26:50;5.82;;;3.08;;
25079;SDS011;13071;48.868;9.996;2022-11-20T04:29:17;6.15;;;3.35;;
25079;SDS011;13071;48.868;9.996;2022-11-20T04:31:44;4.18;;;3.05;;
25079;SDS011;13071;48.868;9.996;2022-11-20T04:34:11;3.80;;;2.58;;
25079;SDS011;13071;48.868;9.996;2022-11-20T04:36:37;7.07;;;3.47;;
25079;SDS011;13071;48.868;9.996;2022-11-20T04:39:06;5.07;;;3.08;;
25079;SDS011;13071;48.868;9.996;2022-11-20T04:41:33;5.68;;;2.92;;
25079;SDS011;13071;48.868;9.996;2022-11-20T04:44:01;5.28;;;2.92;;
25079;SDS011;13071;48.868;9.996;2022-11-20T04:46:30;5.35;;;2.80;;
25079;SDS011;13071;48.868;9.996;2022-11-20T04:48:58;4.72;;;2.85;;
25079;SDS011;13071;48.868;9.996;2022-11-20T04:51:25;6.65;;;2.65;;
25079;SDS011;13071;48.868;9.996;2022-11-20T04:53:52;5.32;;;3.15;;
25079;SDS011;13071;48.868;9.996;2022-11-20T04:56:20;6.68;;;3.15;;
25079;SDS011;13071;48.868;9.996;2022-11-20T04:58:46;4.22;;;2.80;;
25079;SDS011;13071;48.868;9.996;2022-11-20T05:01:14;3.75;;;2.58;;
25079;SDS011;13071;48.868;9.996;2022-11-20T05:03:43;7.03;;;3.10;;
25079;SDS011;13071;48.868;9.996;2022-11-20T05:06:11;5.55;;;3.03;;
25079;SDS011;13071;48.868;9.996;2022-11-20T05:08:39;4.30;;;2.92;;
25079;SDS011;13071;48.868;9.996;2022-11-20T05:11:07;8.38;;;3.05;;
25079;SDS011;13071;48.868;9.996;2022-11-20T05:13:36;3.92;;;2.78;;
25079;SDS011;13071;48.868;9.996;2022-11-20T05:16:04;3.60;;;2.58;;
25079;SDS011;13071;48.868;9.996;2022-11-20T05:18:32;4.70;;;2.75;;
25079;SDS011;13071;48.868;9.996;2022-11-20T05:21:00;3.10;;;2.80;;
25079;SDS011;13071;48.868;9.996;2022-11-20T05:23:27;3.53;;;2.33;;
25079;SDS011;13071;48.868;9.996;2022-11-20T05:25:55;3.53;;;2.80;;
25079;SDS011;13071;48.868;9.996;2022-11-20T05:28:23;4.03;;;2.63;;
25079;SDS011;13071;48.868;9.996;2022-11-20T05:30:52;4.18;;;2.85;;
25079;SDS011;13071;48.868;9.996;2022-11-20T05:33:19;4.25;;;2.65;;
25079;SDS011;13071;48.868;9.996;2022-11-20T05:35:46;6.85;;;2.83;;
25079;SDS011;13071;48.868;9.996;2022-11-20T05:38:13;4.82;;;2.72;;
25079;SDS011;13071;48.868;9.996;2022-11-20T05:40:40;4.15;;;2.50;;
25079;SDS011;13071;48.868;9.996;2022-11-20T05:43:07;4.45;;;2.72;;
25079;SDS011;13071;48.868;9.996;2022-11-20T05:45:33;7.25;;;2.95;;
25079;SDS011;13071;48.868;9.996;2022-11-20T05:48:01;2.92;;;2.45;;
25079;SDS011;13071;48.868;9.996;2022-11-20T05:50:28;7.43;;;2.63;;
25079;SDS011;13071;48.868;9.996;2022-11-20T05:52:54;3.10;;;2.13;;
25079;SDS011;13071;48.868;9.996;2022-11-20T05:55:24;4.18;;;2.72;;
25079;SDS011;13071;48.868;9.996;2022-11-20T05:57:51;3.42;;;2.63;;
25079;SDS011;13071;48.868;9.996;2022-11-20T06:00:18;5.30;;;2.75;;
25079;SDS011;13071;48.868;9.996;2022-11-20T06:02:45;4.05;;;2.33;;
25079;SDS011;13071;48.868;9.996;2022-11-20T06:05:13;4.68;;;2.47;;
25079;SDS011;13071;48.868;9.996;2022-11-20T06:07:40;5.75;;;2.58;;
25079;SDS011;13071;48.868;9.996;2022-11-20T06:10:06;6.03;;;2.75;;
25079;SDS011;13071;48.868;9.996;2022-11-20T06:12:33;4.65;;;2.88;;
25079;SDS011;13071;48.868;9.996;2022-11-20T06:15:00;3.17;;;2.47;;
25079;SDS011;13071;48.868;9.996;2022-11-20T06:17:27;4.13;;;2.55;;
25079;SDS011;13071;48.868;9.996;2022-11-20T06:19:53;3.95;;;2.60;;
25079;SDS011;13071;48.868;9.996;2022-11-20T06:22:21;3.60;;;2.42;;
25079;SDS011;13071;48.868;9.996;2022-11-20T06:24:48;5.40;;;2.42;;
25079;SDS011;13071;48.868;9.996;2022-11-20T06:27:15;3.13;;;2.25;;
25079;SDS011;13071;48.868;9.996;2022-11-20T06:29:42;3.53;;;2.15;;
25079;SDS011;13071;48.868;9.996;2022-11-20T06:32:08;5.10;;;2.13;;
25079;SDS011;13071;48.868;9.996;2022-11-20T06:34:35;2.63;;;1.88;;
25079;SDS011;13071;48.868;9.996;2022-11-20T06:37:02;3.92;;;2.20;;
25079;SDS011;13071;48.868;9.996;2022-11-20T06:39:30;3.22;;;2.15;;
25079;SDS011;13071;48.868;9.996;2022-11-20T06:41:56;5.75;;;2.45;;
25079;SDS011;13071;48.868;9.996;2022-11-20T06:44:23;4.38;;;2.75;;
25079;SDS011;13071;48.868;9.996;2022-11-20T06:46:49;6.05;;;2.55;;
25079;SDS011;13071;48.868;9.996;2022-11-20T06:49:16;3.88;;;2.72;;
25079;SDS011;13071;48.868;9.996;2022-11-20T06:51:43;3.30;;;2.33;;
25079;SDS011;13071;48.868;9.996;2022-11-20T06:54:09;4.03;;;2.67;;
25079;SDS011;13071;48.868;9.996;2022-11-20T06:56:37;12.02;;;3.70;;
25079;SDS011;13071;48.868;9.996;2022-11-20T06:59:04;6.05;;;2.90;;
25079;SDS011;13071;48.868;9.996;2022-11-20T07:01:31;11.82;;;5.53;;
25079;SDS011;13071;48.868;9.996;2022-11-20T07:03:58;5.22;;;2.58;;
25079;SDS011;13071;48.868;9.996;2022-11-20T07:06:25;3.63;;;2.63;;
25079;SDS011;13071;48.868;9.996;2022-11-20T07:08:51;2.60;;;2.22;;
25079;SDS011;13071;48.868;9.996;2022-11-20T07:11:18;6.47;;;3.33;;
25079;SDS011;13071;48.868;9.996;2022-11-20T07:13:46;5.57;;;3.03;;
25079;SDS011;13071;48.868;9.996;2022-11-20T07:16:13;4.38;;;2.88;;
25079;SDS011;13071;48.868;9.996;2022-11-20T07:18:39;3.70;;;2.63;;
25079;SDS011;13071;48.868;9.996;2022-11-20T07:21:07;4.18;;;2.60;;
25079;SDS011;13071;48.868;9.996;2022-11-20T07:23:34;2.85;;;2.30;;
25079;SDS011;13071;48.868;9.996;2022-11-20T07:26:02;4.45;;;2.45;;
25079;SDS011;13071;48.868;9.996;2022-11-20T07:28:29;3.78;;;2.28;;
25079;SDS011;13071;48.868;9.996;2022-11-20T07:30:57;4.25;;;2.63;;
25079;SDS011;13071;48.868;9.996;2022-11-20T07:33:24;6.13;;;3.15;;
25079;SDS011;13071;48.868;9.996;2022-11-20T07:35:51;3.42;;;2.63;;
25079;SDS011;13071;48.868;9.996;2022-11-20T07:38:17;4.78;;;2.35;;
25079;SDS011;13071;48.868;9.996;2022-11-20T07:40:44;3.22;;;2.28;;
25079;SDS011;13071;48.868;9.996;2022-11-20T07:43:11;3.45;;;2.47;;
25079;SDS011;13071;48.868;9.996;2022-11-20T07:45:37;4.22;;;1.98;;
25079;SDS011;13071;48.868;9.996;2022-11-20T07:48:05;4.90;;;2.08;;
25079;SDS011;13071;48.868;9.996;2022-11-20T07:50:32;3.50;;;2.47;;
25079;SDS011;13071;48.868;9.996;2022-11-20T07:53:02;5.10;;;2.60;;
25079;SDS011;13071;48.868;9.996;2022-11-20T07:55:29;3.85;;;2.28;;
25079;SDS011;13071;48.868;9.996;2022-11-20T07:57:56;3.25;;;2.15;;
25079;SDS011;13071;48.868;9.996;2022-11-20T08:00:23;3.65;;;1.95;;
25079;SDS011;13071;48.868;9.996;2022-11-20T08:02:51;2.00;;;1.83;;
25079;SDS011;13071;48.868;9.996;2022-11-20T08:05:19;4.88;;;1.73;;
25079;SDS011;13071;48.868;9.996;2022-11-20T08:07:46;5.70;;;1.90;;
25079;SDS011;13071;48.868;9.996;2022-11-20T08:10:13;2.75;;;1.98;;
25079;SDS011;13071;48.868;9.996;2022-11-20T08:12:44;2.00;;;1.48;;
25079;SDS011;13071;48.868;9.996;2022-11-20T08:15:29;3.40;;;1.80;;
25079;SDS011;13071;48.868;9.996;2022-11-20T08:17:59;1.85;;;1.50;;
25079;SDS011;13071;48.868;9.996;2022-11-20T08:20:28;2.20;;;1.80;;
25079;SDS011;13071;48.868;9.996;2022-11-20T08:22:57;6.78;;;2.20;;
25079;SDS011;13071;48.868;9.996;2022-11-20T08:25:24;2.17;;;1.98;;
25079;SDS011;13071;48.868;9.996;2022-11-20T08:27:51;1.98;;;1.70;;
25079;SDS011;13071;48.868;9.996;2022-11-20T08:30:18;9.95;;;4.35;;
25079;SDS011;13071;48.868;9.996;2022-11-20T08:32:44;19.77;;;5.60;;
25079;SDS011;13071;48.868;9.996;2022-11-20T08:35:11;21.70;;;6.70;;
25079;SDS011;13071;48.868;9.996;2022-11-20T08:37:39;16.92;;;5.55;;
25079;SDS011;13071;48.868;9.996;2022-11-20T08:40:07;3.78;;;2.10;;
25079;SDS011;13071;48.868;9.996;2022-11-20T08:42:35;2.40;;;1.77;;
25079;SDS011;13071;48.868;9.996;2022-11-20T08:45:02;2.28;;;2.08;;
25079;SDS011;13071;48.868;9.996;2022-11-20T08:47:29;9.30;;;3.45;;
25079;SDS011;13071;48.868;9.996;2022-11-20T08:49:56;5.40;;;2.60;;
25079;SDS011;13071;48.868;9.996;2022-11-20T08:52:23;31.52;;;12.00;;
25079;SDS011;13071;48.868;9.996;2022-11-20T08:54:51;5.05;;;3.33;;
25079;SDS011;13071;48.868;9.996;2022-11-20T08:57:17;7.30;;;4.00;;
25079;SDS011;13071;48.868;9.996;2022-11-20T08:59:44;6.20;;;3.30;;
25079;SDS011;13071;48.868;9.996;2022-11-20T09:02:10;6.75;;;3.72;;
25079;SDS011;13071;48.868;9.996;2022-11-20T09:04:37;7.00;;;4.15;;
25079;SDS011;13071;48.868;9.996;2022-11-20T09:07:04;9.80;;;5.07;;
25079;SDS011;13071;48.868;9.996;2022-11-20T09:09:30;3.03;;;2.22;;
25079;SDS011;13071;48.868;9.996;2022-11-20T09:11:59;4.68;;;2.45;;
25079;SDS011;13071;48.868;9.996;2022-11-20T09:14:25;3.58;;;2.33;;
25079;SDS011;13071;48.868;9.996;2022-11-20T09:16:54;3.70;;;2.47;;
25079;SDS011;13071;48.868;9.996;2022-11-20T09:19:20;6.43;;;2.33;;
25079;SDS011;13071;48.868;9.996;2022-11-20T09:21:47;7.82;;;2.60;;
25079;SDS011;13071;48.868;9.996;2022-11-20T09:24:14;5.22;;;3.20;;
25079;SDS011;13071;48.868;9.996;2022-11-20T09:26:40;2.70;;;2.13;;
25079;SDS011;13071;48.868;9.996;2022-11-20T09:29:08;7.15;;;3.10;;
25079;SDS011;13071;48.868;9.996;2022-11-20T09:31:35;3.15;;;1.92;;
25079;SDS011;13071;48.868;9.996;2022-11-20T09:34:01;3.78;;;2.42;;
25079;SDS011;13071;48.868;9.996;2022-11-20T09:36:28;4.38;;;2.50;;
25079;SDS011;13071;48.868;9.996;2022-11-20T09:38:55;5.65;;;2.15;;
25079;SDS011;13071;48.868;9.996;2022-11-20T09:41:29;2.47;;;1.67;;
25079;SDS011;13071;48.868;9.996;2022-11-20T09:44:13;1.83;;;1.73;;
25079;SDS011;13071;48.868;9.996;2022-11-20T09:46:53;4.38;;;2.28;;
25079;SDS011;13071;48.868;9.996;2022-11-20T09:49:27;5.10;;;2.08;;
25079;SDS011;13071;48.868;9.996;2022-11-20T09:52:06;3.03;;;2.43;;
25079;SDS011;13071;48.868;9.996;2022-11-20T09:54:48;6.25;;;4.10;;
25079;SDS011;13071;48.868;9.996;2022-11-20T09:57:17;2.63;;;2.03;;
25079;SDS011;13071;48.868;9.996;2022-11-20T09:59:49;3.08;;;2.30;;
25079;SDS011;13071;48.868;9.996;2022-11-20T10:02:23;4.93;;;2.92;;
25079;SDS011;13071;48.868;9.996;2022-11-20T10:04:55;5.50;;;2.92;;
25079;SDS011;13071;48.868;9.996;2022-11-20T10:07:27;4.68;;;2.80;;
25079;SDS011;13071;48.868;9.996;2022-11-20T10:09:58;5.53;;;2.70;;
25079;SDS011;13071;48.868;9.996;2022-11-20T10:12:27;7.75;;;3.45;;
25079;SDS011;13071;48.868;9.996;2022-11-20T10:15:10;8.80;;;3.42;;
25079;SDS011;13071;48.868;9.996;2022-11-20T10:17:53;2.58;;;1.70;;
25079;SDS011;13071;48.868;9.996;2022-11-20T10:20:30;3.00;;;2.08;;
25079;SDS011;13071;48.868;9.996;2022-11-20T10:23:12;1.58;;;1.45;;
25079;SDS011;13071;48.868;9.996;2022-11-20T10:25:55;2.00;;;1.60;;
25079;SDS011;13071;48.868;9.996;2022-11-20T10:28:30;2.15;;;1.88;;
25079;SDS011;13071;48.868;9.996;2022-11-20T10:31:09;5.68;;;3.10;;
25079;SDS011;13071;48.868;9.996;2022-11-20T10:33:40;6.07;;;1.75;;
25079;SDS011;13071;48.868;9.996;2022-11-20T10:36:14;1.70;;;1.52;;
25079;SDS011;13071;48.868;9.996;2022-11-20T10:38:46;1.95;;;1.63;;
25079;SDS011;13071;48.868;9.996;2022-11-20T10:41:20;3.50;;;1.88;;
25079;SDS011;13071;48.868;9.996;2022-11-20T10:43:54;3.28;;;2.05;;
25079;SDS011;13071;48.868;9.996;2022-11-20T10:46:32;2.55;;;1.45;;
25079;SDS011;13071;48.868;9.996;2022-11-20T10:49:04;2.60;;;1.60;;
25079;SDS011;13071;48.868;9.996;2022-11-20T10:51:37;1.85;;;1.65;;
25079;SDS011;13071;48.868;9.996;2022-11-20T10:54:12;5.63;;;1.75;;
25079;SDS011;13071;48.868;9.996;2022-11-20T10:56:47;2.60;;;1.88;;
25079;SDS011;13071;48.868;9.996;2022-11-20T10:59:26;2.03;;;1.80;;
25079;SDS011;13071;48.868;9.996;2022-11-20T11:02:14;3.28;;;2.30;;
25079;SDS011;13071;48.868;9.996;2022-11-20T11:04:43;2.85;;;2.10;;
25079;SDS011;13071;48.868;9.996;2022-11-20T11:07:12;3.60;;;2.22;;
25079;SDS011;13071;48.868;9.996;2022-11-20T11:09:43;1.85;;;1.75;;
25079;SDS011;13071;48.868;9.996;2022-11-20T11:12:12;4.55;;;2.22;;
25079;SDS011;13071;48.868;9.996;2022-11-20T11:14:43;2.67;;;2.20;;
25079;SDS011;13071;48.868;9.996;2022-11-20T11:17:23;2.58;;;1.67;;
25079;SDS011;13071;48.868;9.996;2022-11-20T11:19:59;4.40;;;2.92;;
25079;SDS011;13071;48.868;9.996;2022-11-20T11:22:27;9.63;;;3.80;;
25079;SDS011;13071;48.868;9.996;2022-11-20T11:24:55;7.93;;;3.95;;
25079;SDS011;13071;48.868;9.996;2022-11-20T11:27:22;2.97;;;1.83;;
25079;SDS011;13071;48.868;9.996;2022-11-20T11:29:49;3.40;;;2.60;;
25079;SDS011;13071;48.868;9.996;2022-11-20T11:32:17;18.35;;;7.30;;
25079;SDS011;13071;48.868;9.996;2022-11-20T11:34:57;11.45;;;4.82;;
25079;SDS011;13071;48.868;9.996;2022-11-20T11:37:25;25.38;;;10.90;;
25079;SDS011;13071;48.868;9.996;2022-11-20T11:39:59;14.23;;;7.32;;
25079;SDS011;13071;48.868;9.996;2022-11-20T11:42:26;3.58;;;2.13;;
25079;SDS011;13071;48.868;9.996;2022-11-20T11:44:54;4.32;;;2.70;;
25079;SDS011;13071;48.868;9.996;2022-11-20T11:47:32;3.42;;;2.10;;
25079;SDS011;13071;48.868;9.996;2022-11-20T11:50:07;2.13;;;1.92;;
25079;SDS011;13071;48.868;9.996;2022-11-20T11:52:43;6.95;;;3.08;;
25079;SDS011;13071;48.868;9.996;2022-11-20T11:55:14;2.10;;;1.90;;
25079;SDS011;13071;48.868;9.996;2022-11-20T11:57:46;2.78;;;1.80;;
25079;SDS011;13071;48.868;9.996;2022-11-20T12:00:19;2.80;;;2.08;;
25079;SDS011;13071;48.868;9.996;2022-11-20T12:02:53;2.50;;;1.83;;
25079;SDS011;13071;48.868;9.996;2022-11-20T12:05:29;1.88;;;1.77;;
25079;SDS011;13071;48.868;9.996;2022-11-20T12:08:02;1.40;;;1.30;;
25079;SDS011;13071;48.868;9.996;2022-11-20T12:10:38;1.73;;;1.63;;
25079;SDS011;13071;48.868;9.996;2022-11-20T12:13:15;2.83;;;1.60;;
25079;SDS011;13071;48.868;9.996;2022-11-20T12:15:48;2.22;;;1.70;;
25079;SDS011;13071;48.868;9.996;2022-11-20T12:18:15;2.63;;;2.05;;
25079;SDS011;13071;48.868;9.996;2022-11-20T12:20:48;2.20;;;1.75;;
25079;SDS011;13071;48.868;9.996;2022-11-20T12:23:28;2.13;;;1.90;;
25079;SDS011;13071;48.868;9.996;2022-11-20T12:26:04;2.33;;;1.98;;
25079;SDS011;13071;48.868;9.996;2022-11-20T12:28:43;2.60;;;1.90;;
25079;SDS011;13071;48.868;9.996;2022-11-20T12:31:23;3.17;;;2.20;;
25079;SDS011;13071;48.868;9.996;2022-11-20T12:34:07;2.60;;;1.90;;
25079;SDS011;13071;48.868;9.996;2022-11-20T12:36:50;2.25;;;1.55;;
25079;SDS011;13071;48.868;9.996;2022-11-20T12:39:23;3.67;;;2.15;;
25079;SDS011;13071;48.868;9.996;2022-11-20T12:51:37;4.43;;;1.90;;
25079;SDS011;13071;48.868;9.996;2022-11-20T12:54:28;1.52;;;1.42;;
25079;SDS011;13071;48.868;9.996;2022-11-20T12:57:09;4.43;;;1.83;;
25079;SDS011;13071;48.868;9.996;2022-11-20T12:59:48;2.65;;;2.05;;
25079;SDS011;13071;48.868;9.996;2022-11-20T13:02:30;2.53;;;1.67;;
25079;SDS011;13071;48.868;9.996;2022-11-20T13:05:10;1.55;;;1.45;;
25079;SDS011;13071;48.868;9.996;2022-11-20T13:07:45;3.13;;;2.25;;
25079;SDS011;13071;48.868;9.996;2022-11-20T13:10:16;1.73;;;1.60;;
25079;SDS011;13071;48.868;9.996;2022-11-20T13:12:48;4.43;;;1.88;;
25079;SDS011;13071;48.868;9.996;2022-11-20T13:15:26;2.92;;;2.00;;
25079;SDS011;13071;48.868;9.996;2022-11-20T13:18:08;1.95;;;1.80;;
25079;SDS011;13071;48.868;9.996;2022-11-20T13:20:40;3.47;;;2.33;;
25079;SDS011;13071;48.868;9.996;2022-11-20T13:23:08;2.55;;;1.95;;
25079;SDS011;13071;48.868;9.996;2022-11-20T13:25:37;1.80;;;1.70;;
25079;SDS011;13071;48.868;9.996;2022-11-20T13:30:54;2.92;;;2.20;;
25079;SDS011;13071;48.868;9.996;2022-11-20T13:33:22;4.13;;;1.83;;
25079;SDS011;13071;48.868;9.996;2022-11-20T13:35:56;2.75;;;2.30;;
25079;SDS011;13071;48.868;9.996;2022-11-20T13:38:24;2.50;;;2.30;;
25079;SDS011;13071;48.868;9.996;2022-11-20T13:40:53;5.53;;;2.90;;
25079;SDS011;13071;48.868;9.996;2022-11-20T13:43:22;2.20;;;1.70;;
25079;SDS011;13071;48.868;9.996;2022-11-20T13:45:54;5.22;;;2.95;;
25079;SDS011;13071;48.868;9.996;2022-11-20T13:48:23;12.32;;;5.03;;
25079;SDS011;13071;48.868;9.996;2022-11-20T13:50:55;4.93;;;2.92;;
25079;SDS011;13071;48.868;9.996;2022-11-20T13:53:32;18.02;;;7.25;;
25079;SDS011;13071;48.868;9.996;2022-11-20T13:56:36;7.35;;;2.97;;
25079;SDS011;13071;48.868;9.996;2022-11-20T13:59:14;18.23;;;5.60;;
25079;SDS011;13071;48.868;9.996;2022-11-20T14:01:53;3.70;;;2.45;;
25079;SDS011;13071;48.868;9.996;2022-11-20T14:04:23;4.13;;;2.78;;
25079;SDS011;13071;48.868;9.996;2022-11-20T14:06:53;3.17;;;2.60;;
25079;SDS011;13071;48.868;9.996;2022-11-20T14:09:27;5.78;;;3.30;;
25079;SDS011;13071;48.868;9.996;2022-11-20T14:11:56;4.05;;;3.05;;
25079;SDS011;13071;48.868;9.996;2022-11-20T14:14:24;5.78;;;3.33;;
25079;SDS011;13071;48.868;9.996;2022-11-20T14:16:52;3.00;;;2.58;;
25079;SDS011;13071;48.868;9.996;2022-11-20T14:19:31;16.50;;;6.97;;
25079;SDS011;13071;48.868;9.996;2022-11-20T14:22:08;12.18;;;5.10;;
25079;SDS011;13071;48.868;9.996;2022-11-20T14:24:41;4.28;;;2.95;;
25079;SDS011;13071;48.868;9.996;2022-11-20T14:27:16;7.03;;;3.40;;
25079;SDS011;13071;48.868;9.996;2022-11-20T14:29:45;9.02;;;3.80;;
25079;SDS011;13071;48.868;9.996;2022-11-20T14:32:14;2.20;;;2.00;;
25079;SDS011;13071;48.868;9.996;2022-11-20T14:34:43;4.22;;;3.03;;
25079;SDS011;13071;48.868;9.996;2022-11-20T14:37:12;6.75;;;4.57;;
25079;SDS011;13071;48.868;9.996;2022-11-20T14:39:47;4.50;;;2.88;;
25079;SDS011;13071;48.868;9.996;2022-11-20T14:42:17;5.68;;;4.10;;
25079;SDS011;13071;48.868;9.996;2022-11-20T14:44:45;5.35;;;4.20;;
25079;SDS011;13071;48.868;9.996;2022-11-20T14:47:14;5.75;;;3.10;;
25079;SDS011;13071;48.868;9.996;2022-11-20T14:49:45;4.03;;;2.65;;
25079;SDS011;13071;48.868;9.996;2022-11-20T14:52:13;5.07;;;2.80;;
25079;SDS011;13071;48.868;9.996;2022-11-20T14:54:44;3.70;;;2.72;;
25079;SDS011;13071;48.868;9.996;2022-11-20T14:57:24;4.65;;;2.90;;
25079;SDS011;13071;48.868;9.996;2022-11-20T15:00:04;5.05;;;3.40;;
25079;SDS011;13071;48.868;9.996;2022-11-20T15:02:32;5.13;;;2.80;;
25079;SDS011;13071;48.868;9.996;2022-11-20T15:04:59;5.00;;;2.72;;
25079;SDS011;13071;48.868;9.996;2022-11-20T15:07:29;5.65;;;2.70;;
25079;SDS011;13071;48.868;9.996;2022-11-20T15:10:01;4.78;;;2.72;;
25079;SDS011;13071;48.868;9.996;2022-11-20T15:12:31;4.95;;;3.05;;